Cascade, MT

2:17 PM MST on December 02, 2016 (GMT -0700)
Trout Montana Fly Shop, Cascade, MT | | Change Station

Elev 3376 ft 47.27 °N, 111.70 °W | Updated 9 minutes ago

Clear
Clear
38.4 °F
Feels Like 32 °F
N
10.0
Wind Variable Wind from SSW
Gusts 17.0 mph

Today
High -- | Low -- °F
--% Chance of Precip.
Yesterday
High -- | Low -- °F
Precip. -- in
Pressure 30.16 in
Visibility 10.0 miles
Clouds Clear
Windchill 32 °F
Dew Point 20 °F
Humidity 47%
Rainfall 0.09 in
Snow Depth Not available.
7:54 AM 4:38 PM
Waxing Crescent, 10% visible
METAR KGTF 022053Z 21018KT 10SM CLR 01/M06 A3003 RMK AO2 SLP212 T00061061 56026
Pressure 30.16 in
Visibility 10.0 miles
Clouds Clear
Windchill 32 °F
Dew Point 20 °F
Humidity 47%
Rainfall 0.09 in
Snow Depth Not available.
7:54 AM 4:38 PM
Waxing Crescent, 10% visible
METAR KGTF 022053Z 21018KT 10SM CLR 01/M06 A3003 RMK AO2 SLP212 T00061061 56026

10-Day Weather Forecast

Almanac

Astronomy

Dec. 02, 2016 Rise Set
Actual Time
Civil Twilight
Nautical Twilight
Astronomical Twilight
Moon
Length of Visible Light
Length of Day
Tomorrow will be .
, % of the Moon is Illuminated

Today's Extremes

State Highs State Lows

Community

WunderPhotos

Upload Photos

1,955,369 photos uploaded!

WunderBlog® & News

Nearby

Air Quality

  Air Quality AQ Index Pollutant
Not available.

Snow Depth

Station Depth Elevation

Earthquake Activity

City Distance Mag. Time & Date
Minimum magnitude displayed is 2.5.

Coastal Water Temperatures

Place Temperature

Stations

Nearby Weather Stations

Station Location Temp. Windchill Dew Point Humidity Wind Precip. Elev Updated Type
                   

Watches & Warnings

There are currently no watches in effect.